Home » Aircrafts » Bombardier » Challenger » Bombardier Challenger 350 | Netjets | CS-CHB | Landing at Cannes Mandelieu with ATC

Airport : Cannes Mandelieu Airport (CEQ/LFMD)
Aircraft : Bombardier Challenger 350
Airline : Netjets Europe
Registration : CS-CHB
Flight Number : NJE110B (FRACTION 110B)
From : Geneva (GVA/LSGG)
Camera : Panasonic HC-V180
Date 11th July 2020
METAR : LFMD 111200Z AUTO 17008KT 110V200 CAVOK 27/21 Q1013 NOSIG

Add comment

Your email address will not be published. Required fields are marked *

Log In

Aircraft Sale

There are no ads matching your search criteria.

Categories